createdAt,value
2022-10-17T00:01:08.764Z,80.50
2022-10-17T00:03:38.940Z,80.63
2022-10-17T00:06:10.375Z,80.86
2022-10-17T00:08:39.386Z,80.94
2022-10-17T00:11:12.971Z,81.07
2022-10-17T00:13:42.939Z,81.11
2022-10-17T00:16:12.659Z,81.19
2022-10-17T00:18:40.796Z,81.34
2022-10-17T00:21:15.735Z,81.39
2022-10-17T00:23:43.375Z,81.43
2022-10-17T00:26:11.290Z,81.34
2022-10-17T00:28:39.681Z,81.26
2022-10-17T00:31:07.796Z,81.19
2022-10-17T00:33:36.402Z,81.18
2022-10-17T00:36:19.557Z,81.41
2022-10-17T00:38:50.229Z,81.33
2022-10-17T00:41:23.509Z,81.42
2022-10-17T00:44:03.343Z,81.41
2022-10-17T00:46:39.204Z,81.30
2022-10-17T00:49:12.580Z,81.50
2022-10-17T00:51:45.347Z,81.27
2022-10-17T00:54:16.192Z,81.18
2022-10-17T00:56:47.420Z,81.26
2022-10-17T00:59:18.813Z,81.11
2022-10-17T01:02:08.237Z,81.25
2022-10-17T01:04:44.600Z,81.15
2022-10-17T01:07:23.331Z,81.04
2022-10-17T01:09:55.935Z,81.06
2022-10-17T01:12:54.929Z,81.14
2022-10-17T01:16:10.792Z,81.21
2022-10-17T01:18:57.995Z,81.28
2022-10-17T01:21:40.999Z,81.28
2022-10-17T01:24:51.896Z,81.31
2022-10-17T01:27:39.145Z,81.23
2022-10-17T01:30:22.986Z,81.24
2022-10-17T01:33:20.904Z,81.33
2022-10-17T01:35:55.917Z,81.25
2022-10-17T01:38:35.642Z,81.35
2022-10-17T01:41:39.015Z,81.49
2022-10-17T01:44:27.276Z,81.58
2022-10-17T01:47:05.384Z,81.78
2022-10-17T01:49:36.790Z,82.05
2022-10-17T01:52:35.350Z,82.19
2022-10-17T01:55:09.472Z,82.23
2022-10-17T01:57:41.979Z,82.35
2022-10-17T02:00:18.827Z,82.36
2022-10-17T02:03:05.199Z,82.38
2022-10-17T02:05:40.257Z,82.55
2022-10-17T02:08:08.632Z,82.48
2022-10-17T02:10:53.280Z,82.59
2022-10-17T02:13:46.706Z,82.67
2022-10-17T02:16:27.845Z,82.79
2022-10-17T02:19:34.935Z,82.82
2022-10-17T02:22:24.242Z,82.93
2022-10-17T02:25:01.314Z,82.86
2022-10-17T02:27:45.491Z,82.89
2022-10-17T02:30:27.439Z,83.07
2022-10-17T02:33:01.255Z,83.16
2022-10-17T02:35:35.799Z,83.26
2022-10-17T02:38:06.703Z,83.41
2022-10-17T02:40:36.256Z,83.44
2022-10-17T02:43:04.885Z,83.52
2022-10-17T02:45:36.171Z,83.44
2022-10-17T02:48:11.218Z,83.36
2022-10-17T02:50:52.494Z,83.43
2022-10-17T02:53:40.111Z,83.33
2022-10-17T02:56:18.299Z,83.38
2022-10-17T02:58:58.460Z,83.35
2022-10-17T03:01:27.387Z,83.38
2022-10-17T03:04:10.371Z,83.34
2022-10-17T03:06:39.082Z,83.13
2022-10-17T03:09:09.014Z,83.09
2022-10-17T03:11:36.853Z,82.94
2022-10-17T03:14:05.415Z,82.84
2022-10-17T03:16:33.262Z,82.80
2022-10-17T03:19:01.174Z,82.87
2022-10-17T03:21:29.354Z,82.72
2022-10-17T03:23:58.007Z,82.95
2022-10-17T03:26:26.060Z,83.12
2022-10-17T03:28:54.613Z,83.03
2022-10-17T03:31:23.306Z,83.29
2022-10-17T03:33:51.841Z,83.16
2022-10-17T03:36:21.590Z,83.26
2022-10-17T03:38:55.530Z,83.22
2022-10-17T03:41:23.720Z,83.25
2022-10-17T03:43:53.943Z,83.25
2022-10-17T03:46:22.174Z,83.28
2022-10-17T03:48:50.256Z,83.59
2022-10-17T03:51:19.715Z,83.74
2022-10-17T03:53:52.261Z,83.81
2022-10-17T03:56:23.179Z,83.82
2022-10-17T03:58:59.671Z,83.99
2022-10-17T04:01:30.007Z,84.06
2022-10-17T04:03:58.028Z,84.13
2022-10-17T04:06:28.106Z,84.16
2022-10-17T04:08:55.977Z,84.31
2022-10-17T04:11:28.799Z,84.29
2022-10-17T04:14:00.323Z,84.31
2022-10-17T04:16:28.992Z,84.38
2022-10-17T04:19:03.237Z,84.36
2022-10-17T04:21:38.703Z,84.39
2022-10-17T04:24:11.676Z,84.38
2022-10-17T04:26:52.367Z,84.42
2022-10-17T04:29:22.008Z,84.46
2022-10-17T04:31:53.061Z,84.44
2022-10-17T04:34:26.038Z,84.52
2022-10-17T04:36:53.815Z,84.70
2022-10-17T04:39:22.984Z,84.73
2022-10-17T04:41:51.837Z,84.87
2022-10-17T04:44:20.848Z,84.98
2022-10-17T04:46:51.818Z,84.86
2022-10-17T04:49:20.540Z,84.89
2022-10-17T04:51:50.739Z,84.92
2022-10-17T04:54:40.110Z,85.07
2022-10-17T04:57:11.316Z,85.22
2022-10-17T04:59:39.997Z,85.17
2022-10-17T05:02:19.298Z,85.15
2022-10-17T05:04:47.146Z,85.32
2022-10-17T05:07:15.261Z,85.31
2022-10-17T05:10:00.103Z,85.37
2022-10-17T05:12:28.321Z,85.47
2022-10-17T05:14:56.087Z,85.49
2022-10-17T05:17:25.448Z,85.40
2022-10-17T05:19:53.825Z,85.61
2022-10-17T05:22:21.908Z,85.49
2022-10-17T05:24:50.616Z,85.55
2022-10-17T05:27:18.439Z,85.57
2022-10-17T05:29:46.743Z,85.58
2022-10-17T05:32:25.454Z,85.66
2022-10-17T05:34:53.231Z,85.52
2022-10-17T05:37:23.633Z,85.46
2022-10-17T05:39:52.881Z,85.40
2022-10-17T05:42:20.967Z,85.30
2022-10-17T05:44:49.132Z,85.38
2022-10-17T05:47:18.561Z,85.27
2022-10-17T05:49:51.421Z,85.25
2022-10-17T05:52:22.748Z,85.16
2022-10-17T05:54:59.999Z,85.19
2022-10-17T05:57:28.517Z,85.15
2022-10-17T05:59:57.647Z,85.03
2022-10-17T06:02:25.568Z,84.99
2022-10-17T06:04:53.672Z,84.98
2022-10-17T06:07:22.317Z,84.95
2022-10-17T06:09:50.459Z,84.90
2022-10-17T06:12:18.357Z,84.70
2022-10-17T06:14:48.358Z,84.64
2022-10-17T06:17:16.900Z,84.51
2022-10-17T06:19:45.389Z,84.45
2022-10-17T06:22:15.461Z,84.38
2022-10-17T06:24:44.193Z,84.34
2022-10-17T06:27:13.724Z,84.07
2022-10-17T06:29:42.519Z,83.99
2022-10-17T06:32:14.271Z,83.84
2022-10-17T06:34:44.767Z,83.73
2022-10-17T06:37:13.401Z,83.52
2022-10-17T06:39:43.585Z,83.47
2022-10-17T06:42:15.133Z,83.21
2022-10-17T06:45:09.943Z,83.01
2022-10-17T06:47:46.123Z,83.10
2022-10-17T06:50:27.803Z,82.99
2022-10-17T06:53:30.504Z,83.04
2022-10-17T06:56:16.195Z,82.68
2022-10-17T06:59:10.379Z,82.62
2022-10-17T07:01:46.968Z,82.58
2022-10-17T07:04:17.178Z,82.39
2022-10-17T07:06:45.005Z,82.36
2022-10-17T07:09:19.068Z,82.14
2022-10-17T07:11:48.473Z,82.19
2022-10-17T07:14:19.676Z,82.08
2022-10-17T07:16:48.123Z,81.96
2022-10-17T07:19:21.874Z,81.88
2022-10-17T07:21:50.931Z,81.80
2022-10-17T07:24:18.762Z,81.74
2022-10-17T07:26:50.494Z,81.59
2022-10-17T07:29:19.364Z,81.45
2022-10-17T07:31:57.905Z,81.20
2022-10-17T07:34:28.401Z,81.01
2022-10-17T07:36:56.191Z,80.77
2022-10-17T07:39:25.048Z,80.55
2022-10-17T07:41:52.755Z,80.39
2022-10-17T07:44:20.560Z,80.22
2022-10-17T07:46:51.283Z,80.24
2022-10-17T07:49:19.736Z,80.10
2022-10-17T07:51:49.067Z,79.84
2022-10-17T07:54:17.547Z,79.58
2022-10-17T07:56:51.514Z,79.32
2022-10-17T07:59:22.102Z,79.00
2022-10-17T08:01:49.857Z,78.80
2022-10-17T08:04:17.606Z,78.64
2022-10-17T08:06:45.623Z,78.40
2022-10-17T08:09:13.413Z,78.33
2022-10-17T08:11:41.236Z,78.13
2022-10-17T08:14:10.212Z,77.97
2022-10-17T08:16:38.222Z,77.62
2022-10-17T08:21:42.073Z,77.26
2022-10-17T08:24:11.228Z,76.91
2022-10-17T08:26:43.510Z,76.46
2022-10-17T08:29:16.974Z,76.25
2022-10-17T08:31:47.850Z,76.27
2022-10-17T08:34:17.756Z,75.97
2022-10-17T08:36:45.542Z,75.63
2022-10-17T08:39:16.572Z,75.57
2022-10-17T08:42:12.281Z,75.16
2022-10-17T08:45:00.238Z,75.03
2022-10-17T08:47:35.796Z,74.73
2022-10-17T08:50:08.615Z,74.47
2022-10-17T08:52:51.697Z,74.24
2022-10-17T08:55:45.600Z,73.92
2022-10-17T08:58:26.402Z,73.53
2022-10-17T09:01:13.704Z,73.26
2022-10-17T09:04:06.056Z,72.81
2022-10-17T09:06:48.221Z,72.39
2022-10-17T09:09:40.646Z,72.20
2022-10-17T09:12:18.160Z,71.71
2022-10-17T09:15:12.634Z,71.49
2022-10-17T09:17:53.026Z,70.66
2022-10-17T09:21:02.213Z,70.74
2022-10-17T09:24:03.979Z,70.39
2022-10-17T09:26:41.550Z,70.17
